Beroun, Czech Republic
Current Conditions -  °F | °C
As of 2:00 PM on Monday 24 Nov 2014 (Local Time) from LKPR Reporting Station
Haze Haze  
Wind Chill: 41°   Ceiling: 1000
Heat Index: 41°   Visibility: 3mi
Dew Point: 37°   Wind: 3mph
Humidity: 87%   Direction: 230°SW
Pressure: 30.21"   Gusts: NA
Location:  49.97°N, 14.07°E
Report Text: LKPR 241200Z 23003KT 5000 BR OVC010 05/03 Q1023 NOSIG
Loading
Personal Weather Stations






























Interactive Weather Map New forecast layout! Learn more

10-Day Weather Forecast

Advertisements
Track Severe Weather on mobile